createdAt,value
2023-03-07T00:02:17.521Z,2.43
2023-03-07T00:04:46.213Z,2.41
2023-03-07T00:07:13.307Z,2.46
2023-03-07T00:09:39.949Z,2.48
2023-03-07T00:12:08.478Z,2.43
2023-03-07T00:14:35.450Z,2.27
2023-03-07T00:17:02.166Z,2.11
2023-03-07T00:19:28.918Z,2.15
2023-03-07T00:21:55.524Z,2.09
2023-03-07T00:24:22.133Z,2.06
2023-03-07T00:26:48.693Z,1.96
2023-03-07T00:29:15.307Z,1.91
2023-03-07T00:31:41.997Z,1.94
2023-03-07T00:34:08.847Z,1.91
2023-03-07T00:36:38.677Z,1.95
2023-03-07T00:39:05.360Z,1.96
2023-03-07T00:41:31.927Z,1.96
2023-03-07T00:43:58.514Z,1.96
2023-03-07T00:46:26.013Z,2.02
2023-03-07T00:48:53.297Z,2.05
2023-03-07T00:51:21.310Z,2.05
2023-03-07T00:53:48.672Z,2.02
2023-03-07T00:56:18.878Z,2.02
2023-03-07T00:58:46.942Z,2.00
2023-03-07T01:01:17.129Z,2.03
2023-03-07T01:03:44.504Z,1.97
2023-03-07T01:06:15.526Z,1.91
2023-03-07T01:08:42.534Z,1.93
2023-03-07T01:11:10.637Z,1.94
2023-03-07T01:13:37.822Z,1.87
2023-03-07T01:16:16.672Z,1.88
2023-03-07T01:18:44.613Z,1.83
2023-03-07T01:21:14.232Z,1.78
2023-03-07T01:23:40.852Z,1.83
2023-03-07T01:26:07.529Z,1.82
2023-03-07T01:28:34.157Z,1.78
2023-03-07T01:31:01.040Z,1.82
2023-03-07T01:33:27.658Z,1.80
2023-03-07T01:35:54.434Z,1.77
2023-03-07T01:38:21.073Z,1.74
2023-03-07T01:40:47.697Z,1.71
2023-03-07T01:43:24.684Z,1.69
2023-03-07T01:45:51.487Z,1.71
2023-03-07T01:48:18.249Z,1.60
2023-03-07T01:50:44.982Z,1.54
2023-03-07T01:53:11.885Z,1.58
2023-03-07T01:55:38.862Z,1.60
2023-03-07T01:58:10.818Z,1.64
2023-03-07T02:00:38.837Z,1.62
2023-03-07T02:03:11.252Z,1.58
2023-03-07T02:05:47.601Z,1.56
2023-03-07T02:08:16.590Z,1.56
2023-03-07T02:10:43.492Z,1.56
2023-03-07T02:13:10.599Z,1.55
2023-03-07T02:15:37.592Z,1.53
2023-03-07T02:18:05.846Z,1.54
2023-03-07T02:20:36.796Z,1.55
2023-03-07T02:23:04.787Z,1.56
2023-03-07T02:26:03.322Z,1.49
2023-03-07T02:28:30.514Z,1.50
2023-03-07T02:31:00.332Z,1.48
2023-03-07T02:33:27.328Z,1.47
2023-03-07T02:35:59.866Z,1.40
2023-03-07T02:38:26.591Z,1.41
2023-03-07T02:40:55.517Z,1.47
2023-03-07T02:43:22.982Z,1.48
2023-03-07T02:45:49.980Z,1.47
2023-03-07T02:48:16.729Z,1.47
2023-03-07T02:50:43.310Z,1.48
2023-03-07T02:53:09.936Z,1.45
2023-03-07T02:55:36.497Z,1.43
2023-03-07T02:58:03.084Z,1.40
2023-03-07T03:00:30.245Z,1.42
2023-03-07T03:02:56.864Z,1.38
2023-03-07T03:05:23.520Z,1.42
2023-03-07T03:07:50.177Z,1.41
2023-03-07T03:10:17.379Z,1.42
2023-03-07T03:12:44.529Z,1.25
2023-03-07T03:15:12.133Z,1.32
2023-03-07T03:17:39.359Z,1.35
2023-03-07T03:20:11.694Z,1.35
2023-03-07T03:22:40.646Z,1.37
2023-03-07T03:25:10.007Z,1.35
2023-03-07T03:27:38.181Z,1.34
2023-03-07T03:30:06.791Z,1.34
2023-03-07T03:32:33.677Z,1.35
2023-03-07T03:35:00.495Z,1.35
2023-03-07T03:37:27.257Z,1.32
2023-03-07T03:39:54.470Z,1.32
2023-03-07T03:42:21.085Z,1.19
2023-03-07T03:44:47.706Z,1.17
2023-03-07T03:47:14.322Z,1.18
2023-03-07T03:49:41.256Z,1.23
2023-03-07T03:52:08.040Z,1.26
2023-03-07T03:54:34.891Z,1.26
2023-03-07T03:57:01.503Z,1.26
2023-03-07T03:59:28.138Z,1.25
2023-03-07T04:01:55.337Z,1.24
2023-03-07T04:04:22.760Z,1.20
2023-03-07T04:06:49.389Z,1.22
2023-03-07T04:09:15.977Z,1.12
2023-03-07T04:11:42.543Z,1.12
2023-03-07T04:14:09.146Z,1.17
2023-03-07T04:16:35.787Z,1.17
2023-03-07T04:19:02.802Z,1.19
2023-03-07T04:21:29.424Z,1.18
2023-03-07T04:23:58.332Z,1.20
2023-03-07T04:26:24.982Z,1.14
2023-03-07T04:28:51.629Z,1.08
2023-03-07T04:31:23.825Z,1.14
2023-03-07T04:33:55.616Z,1.17
2023-03-07T04:36:23.386Z,1.12
2023-03-07T04:38:53.600Z,1.05
2023-03-07T04:41:23.533Z,0.99
2023-03-07T04:43:50.175Z,1.08
2023-03-07T04:46:18.650Z,1.11
2023-03-07T04:48:46.301Z,1.12
2023-03-07T04:51:13.496Z,1.13
2023-03-07T04:53:40.203Z,1.11
2023-03-07T04:56:08.436Z,1.12
2023-03-07T04:58:35.565Z,1.11
2023-03-07T05:01:03.685Z,1.13
2023-03-07T05:03:30.788Z,1.06
2023-03-07T05:06:02.704Z,1.05
2023-03-07T05:08:29.639Z,1.08
2023-03-07T05:10:57.921Z,1.07
2023-03-07T05:13:24.601Z,1.06
2023-03-07T05:15:53.186Z,1.00
2023-03-07T05:18:20.181Z,1.04
2023-03-07T05:20:47.443Z,0.90
2023-03-07T05:23:14.172Z,0.96
2023-03-07T05:25:43.174Z,1.00
2023-03-07T05:28:10.636Z,1.01
2023-03-07T05:30:37.241Z,0.96
2023-03-07T05:33:03.903Z,0.98
2023-03-07T05:35:30.731Z,1.00
2023-03-07T05:37:57.348Z,1.02
2023-03-07T05:40:24.731Z,0.98
2023-03-07T05:42:51.448Z,1.01
2023-03-07T05:45:18.179Z,1.00
2023-03-07T05:47:44.789Z,0.97
2023-03-07T05:50:11.819Z,0.93
2023-03-07T05:52:38.512Z,0.98
2023-03-07T05:55:05.699Z,0.97
2023-03-07T05:57:32.612Z,0.96
2023-03-07T05:59:59.217Z,0.97
2023-03-07T06:02:25.882Z,0.97
2023-03-07T06:04:52.482Z,0.95
2023-03-07T06:07:19.124Z,0.92
2023-03-07T06:09:45.743Z,0.97
2023-03-07T06:12:12.331Z,0.93
2023-03-07T06:14:38.925Z,0.92
2023-03-07T06:17:05.978Z,0.94
2023-03-07T06:19:32.678Z,0.93
2023-03-07T06:21:59.504Z,1.00
2023-03-07T06:24:26.059Z,1.02
2023-03-07T06:26:52.778Z,1.05
2023-03-07T06:29:19.368Z,1.06
2023-03-07T06:31:46.007Z,1.07
2023-03-07T06:34:12.987Z,1.10
2023-03-07T06:36:40.367Z,1.12
2023-03-07T06:39:07.549Z,1.18
2023-03-07T06:41:34.180Z,1.22
2023-03-07T06:44:00.856Z,1.25
2023-03-07T06:46:27.675Z,1.27
2023-03-07T06:48:55.220Z,1.29
2023-03-07T06:51:22.117Z,1.32
2023-03-07T06:53:48.678Z,1.33
2023-03-07T06:56:15.533Z,1.37
2023-03-07T06:58:42.109Z,1.39
2023-03-07T07:01:15.928Z,1.43
2023-03-07T07:03:42.576Z,1.46
2023-03-07T07:06:09.201Z,1.50
2023-03-07T07:08:35.886Z,1.50
2023-03-07T07:11:02.473Z,1.57
2023-03-07T07:13:29.118Z,1.62
2023-03-07T07:15:55.745Z,1.69
2023-03-07T07:18:22.379Z,1.72
2023-03-07T07:20:56.542Z,1.75
2023-03-07T07:23:23.249Z,1.80
2023-03-07T07:25:49.827Z,1.92
2023-03-07T07:28:16.423Z,1.92
2023-03-07T07:30:43.414Z,1.94
2023-03-07T07:33:10.088Z,1.94
2023-03-07T07:35:36.995Z,1.97
2023-03-07T07:38:03.878Z,2.02
2023-03-07T07:40:30.748Z,2.03
2023-03-07T07:42:57.422Z,2.06
2023-03-07T07:45:24.404Z,2.08
2023-03-07T07:47:52.005Z,2.13
2023-03-07T07:50:20.392Z,2.18
2023-03-07T07:52:47.723Z,2.23
2023-03-07T07:55:14.931Z,2.28
2023-03-07T07:57:42.379Z,2.40
2023-03-07T08:00:11.692Z,2.63
2023-03-07T08:02:38.863Z,2.59
2023-03-07T08:05:07.993Z,2.63
2023-03-07T08:07:34.616Z,2.66
2023-03-07T08:10:01.176Z,2.80
2023-03-07T08:12:28.102Z,2.97
2023-03-07T08:14:54.778Z,2.96
2023-03-07T08:17:21.355Z,3.07
2023-03-07T08:19:47.962Z,3.18
2023-03-07T08:22:14.586Z,3.29
2023-03-07T08:24:41.300Z,3.46
2023-03-07T08:27:09.073Z,3.67
2023-03-07T08:29:35.741Z,3.78
2023-03-07T08:32:02.451Z,3.85
2023-03-07T08:34:33.593Z,3.94
2023-03-07T08:37:00.193Z,4.06
2023-03-07T08:39:30.035Z,4.16
2023-03-07T08:41:56.932Z,4.21
2023-03-07T08:44:23.668Z,4.30
2023-03-07T08:46:50.219Z,4.39
2023-03-07T08:49:16.922Z,4.47
2023-03-07T08:51:43.534Z,4.62
2023-03-07T08:54:10.122Z,4.81
2023-03-07T08:56:36.719Z,4.83
2023-03-07T08:59:03.334Z,4.82
2023-03-07T09:01:29.971Z,4.81
2023-03-07T09:03:56.668Z,4.81
2023-03-07T09:06:24.072Z,4.92
2023-03-07T09:08:51.000Z,5.03
2023-03-07T09:11:18.234Z,5.01
2023-03-07T09:13:51.913Z,5.14
2023-03-07T09:16:21.091Z,5.14
2023-03-07T09:18:47.794Z,5.19
2023-03-07T09:21:14.633Z,5.29
2023-03-07T09:23:43.316Z,5.50
2023-03-07T09:26:10.321Z,5.72
2023-03-07T09:28:36.909Z,5.73
2023-03-07T09:31:08.839Z,5.78
2023-03-07T09:33:35.545Z,5.89
2023-03-07T09:36:05.836Z,5.87
2023-03-07T09:38:32.564Z,6.01
2023-03-07T09:41:14.606Z,6.04
2023-03-07T09:43:51.609Z,6.08
2023-03-07T09:46:28.671Z,6.11
2023-03-07T09:49:15.120Z,6.21
2023-03-07T09:51:44.054Z,6.32
2023-03-07T09:54:16.188Z,6.40
2023-03-07T09:56:50.271Z,6.40
2023-03-07T09:59:34.061Z,6.48
2023-03-07T10:02:06.120Z,6.55
2023-03-07T10:04:46.974Z,6.53
2023-03-07T10:07:16.011Z,6.58
2023-03-07T10:09:45.560Z,6.60
2023-03-07T10:12:42.582Z,6.63
2023-03-07T10:15:30.284Z,6.57
2023-03-07T10:18:10.265Z,6.55
2023-03-07T10:20:45.086Z,6.58
2023-03-07T10:23:24.757Z,6.60
2023-03-07T10:26:15.098Z,6.70
2023-03-07T10:28:44.648Z,6.83
2023-03-07T10:31:26.540Z,6.93
2023-03-07T10:33:54.976Z,7.04
2023-03-07T10:36:29.477Z,7.16
2023-03-07T10:39:03.564Z,7.27
2023-03-07T10:41:30.542Z,7.38
2023-03-07T10:43:57.753Z,7.35
2023-03-07T10:46:28.228Z,7.47
2023-03-07T10:49:03.664Z,7.54
2023-03-07T10:51:53.307Z,7.63
2023-03-07T10:54:24.214Z,7.70
2023-03-07T10:57:02.815Z,7.71
2023-03-07T10:59:29.434Z,7.75
2023-03-07T11:01:58.994Z,7.77
2023-03-07T11:04:28.369Z,7.95
2023-03-07T11:07:02.446Z,8.00
2023-03-07T11:09:34.820Z,8.02
2023-03-07T11:12:20.139Z,8.09
2023-03-07T11:14:49.462Z,8.23
2023-03-07T11:17:27.654Z,8.30
2023-03-07T11:19:56.145Z,8.43
2023-03-07T11:22:36.660Z,8.45
2023-03-07T11:25:19.038Z,8.46
2023-03-07T11:27:45.644Z,8.43
2023-03-07T11:30:30.469Z,8.39
2023-03-07T11:33:08.161Z,8.28
2023-03-07T11:35:49.823Z,8.26
2023-03-07T11:38:28.327Z,8.09
2023-03-07T11:41:10.050Z,8.23
2023-03-07T11:43:52.855Z,8.28
2023-03-07T11:46:52.454Z,8.45
2023-03-07T11:49:37.361Z,8.63
2023-03-07T11:52:20.146Z,8.59
2023-03-07T11:55:15.573Z,8.61
2023-03-07T11:58:12.631Z,8.78
2023-03-07T12:00:52.173Z,8.92
2023-03-07T12:03:20.747Z,8.98
2023-03-07T12:06:10.612Z,8.88
2023-03-07T12:08:51.368Z,8.97
2023-03-07T12:11:38.910Z,8.92
2023-03-07T12:14:21.941Z,8.85
2023-03-07T12:17:03.766Z,8.79
2023-03-07T12:19:53.912Z,8.87
2023-03-07T12:22:28.500Z,9.00
2023-03-07T12:25:09.241Z,8.97
2023-03-07T12:27:41.821Z,9.05
2023-03-07T12:30:23.337Z,8.95
2023-03-07T12:32:51.353Z,8.96
2023-03-07T12:35:26.797Z,8.96
2023-03-07T12:38:04.595Z,9.09
2023-03-07T12:40:44.613Z,9.09
2023-03-07T12:43:30.152Z,9.21
2023-03-07T12:46:12.230Z,9.29
2023-03-07T12:48:47.629Z,9.45
2023-03-07T12:51:22.249Z,9.51
2023-03-07T12:53:57.738Z,9.53
2023-03-07T12:56:34.082Z,9.60
2023-03-07T12:59:02.637Z,9.49
2023-03-07T13:01:32.434Z,9.43
2023-03-07T13:04:26.613Z,9.44
2023-03-07T13:06:55.932Z,9.58
2023-03-07T13:09:24.205Z,9.70
2023-03-07T13:12:24.676Z,9.65
2023-03-07T13:15:04.801Z,9.63
2023-03-07T13:17:31.538Z,9.74
2023-03-07T13:20:14.519Z,9.65
2023-03-07T13:22:41.062Z,9.70
2023-03-07T13:25:23.907Z,9.71
2023-03-07T13:27:54.048Z,9.80
2023-03-07T13:30:30.124Z,9.78
2023-03-07T13:33:01.213Z,9.88
2023-03-07T13:35:28.984Z,9.89
2023-03-07T13:38:03.668Z,10.01
2023-03-07T13:40:46.643Z,10.09
2023-03-07T13:43:28.680Z,10.05
2023-03-07T13:45:58.494Z,10.11
2023-03-07T13:48:25.261Z,10.09
2023-03-07T13:50:51.832Z,10.01
2023-03-07T13:53:36.507Z,10.08
2023-03-07T13:56:19.935Z,10.06
2023-03-07T13:58:53.188Z,10.15
2023-03-07T14:01:23.662Z,10.06
2023-03-07T14:03:54.641Z,9.98
2023-03-07T14:06:32.196Z,9.90
2023-03-07T14:09:02.568Z,9.99
2023-03-07T14:11:51.824Z,9.95
2023-03-07T14:14:49.590Z,9.76
2023-03-07T14:17:29.386Z,9.80
2023-03-07T14:20:24.764Z,9.77
2023-03-07T14:23:06.644Z,9.92
2023-03-07T14:25:36.489Z,9.96
2023-03-07T14:28:19.734Z,10.06
2023-03-07T14:30:58.946Z,10.08
2023-03-07T14:33:34.751Z,10.05
2023-03-07T14:36:04.904Z,10.01
2023-03-07T14:38:32.966Z,10.12
2023-03-07T14:41:06.827Z,10.18
2023-03-07T14:43:55.174Z,10.19
2023-03-07T14:46:26.133Z,10.16
2023-03-07T14:48:56.998Z,10.04
2023-03-07T14:51:27.131Z,10.05
2023-03-07T14:53:55.019Z,9.98
2023-03-07T14:56:27.356Z,9.89
2023-03-07T14:58:59.766Z,9.85
2023-03-07T15:01:32.098Z,9.99
2023-03-07T15:03:58.900Z,10.01
2023-03-07T15:06:27.940Z,9.94
2023-03-07T15:08:57.360Z,9.75
2023-03-07T15:11:38.141Z,9.75
2023-03-07T15:14:13.182Z,9.75
2023-03-07T15:16:44.145Z,9.48
2023-03-07T15:19:23.019Z,9.37
2023-03-07T15:21:55.106Z,9.31
2023-03-07T15:24:30.224Z,9.22
2023-03-07T15:26:58.332Z,9.21
2023-03-07T15:29:28.625Z,9.08
2023-03-07T15:32:03.941Z,9.05
2023-03-07T15:34:34.356Z,9.05
2023-03-07T15:37:20.550Z,8.90
2023-03-07T15:39:55.894Z,8.83
2023-03-07T15:42:22.826Z,8.76
2023-03-07T15:44:54.351Z,8.73
2023-03-07T15:47:21.450Z,8.74
2023-03-07T15:49:51.075Z,8.66
2023-03-07T15:52:22.037Z,8.70
2023-03-07T15:54:52.737Z,8.56
2023-03-07T15:57:23.351Z,8.46
2023-03-07T15:59:55.799Z,8.44
2023-03-07T16:02:39.931Z,8.48
2023-03-07T16:05:28.764Z,8.48
2023-03-07T16:07:57.313Z,8.48
2023-03-07T16:10:28.191Z,8.50
2023-03-07T16:12:55.559Z,8.45
2023-03-07T16:15:23.870Z,8.45
2023-03-07T16:17:55.002Z,8.41
2023-03-07T16:20:26.930Z,8.40
2023-03-07T16:22:53.789Z,8.34
2023-03-07T16:25:22.083Z,8.31
2023-03-07T16:27:53.268Z,8.28
2023-03-07T16:30:23.797Z,8.21
2023-03-07T16:32:50.821Z,8.19
2023-03-07T16:35:27.503Z,8.17
2023-03-07T16:37:55.151Z,8.15
2023-03-07T16:40:22.892Z,8.04
2023-03-07T16:42:53.687Z,8.07
2023-03-07T16:45:24.819Z,8.06
2023-03-07T16:47:53.515Z,8.01
2023-03-07T16:50:25.584Z,7.95
2023-03-07T16:52:52.291Z,7.90
2023-03-07T16:55:19.961Z,7.89
2023-03-07T16:57:51.161Z,7.83
2023-03-07T17:00:20.938Z,7.76
2023-03-07T17:02:48.969Z,7.73
2023-03-07T17:05:21.198Z,7.67
2023-03-07T17:07:47.868Z,7.67
2023-03-07T17:10:15.019Z,7.61
2023-03-07T17:12:42.593Z,7.53
2023-03-07T17:15:14.295Z,7.45
2023-03-07T17:17:41.828Z,7.31
2023-03-07T17:20:11.969Z,7.14
2023-03-07T17:22:38.653Z,7.01
2023-03-07T17:25:05.776Z,6.84
2023-03-07T17:27:34.948Z,6.74
2023-03-07T17:30:01.697Z,6.54
2023-03-07T17:32:28.386Z,6.41
2023-03-07T17:34:55.023Z,6.26
2023-03-07T17:37:22.049Z,6.23
2023-03-07T17:39:48.775Z,6.22
2023-03-07T17:42:15.412Z,6.12
2023-03-07T17:44:42.096Z,6.00
2023-03-07T17:47:08.777Z,5.91
2023-03-07T17:49:38.121Z,5.81
2023-03-07T17:52:06.269Z,5.61
2023-03-07T17:54:33.341Z,5.42
2023-03-07T17:57:00.933Z,5.36
2023-03-07T17:59:27.646Z,5.31
2023-03-07T18:01:54.415Z,5.32
2023-03-07T18:04:21.051Z,5.23
2023-03-07T18:06:48.096Z,5.05
2023-03-07T18:09:15.384Z,4.99
2023-03-07T18:11:42.120Z,4.97
2023-03-07T18:14:08.739Z,4.79
2023-03-07T18:16:35.325Z,4.76
2023-03-07T18:19:04.773Z,4.77
2023-03-07T18:21:32.288Z,4.75
2023-03-07T18:23:58.890Z,4.50
2023-03-07T18:26:25.913Z,4.47
2023-03-07T18:28:54.181Z,4.56
2023-03-07T18:31:25.228Z,4.50
2023-03-07T18:33:53.055Z,4.47
2023-03-07T18:36:21.589Z,4.46
2023-03-07T18:38:49.013Z,4.30
2023-03-07T18:41:19.273Z,4.25
2023-03-07T18:43:46.131Z,4.10
2023-03-07T18:46:16.564Z,4.18
2023-03-07T18:48:43.326Z,4.37
2023-03-07T18:51:13.307Z,4.59
2023-03-07T18:53:40.805Z,4.76
2023-03-07T18:56:12.928Z,4.87
2023-03-07T18:58:40.511Z,4.97
2023-03-07T19:01:10.588Z,5.04
2023-03-07T19:03:37.256Z,5.05
2023-03-07T19:06:03.959Z,5.13
2023-03-07T19:08:30.789Z,5.14
2023-03-07T19:10:57.455Z,5.07
2023-03-07T19:13:24.072Z,5.13
2023-03-07T19:15:50.664Z,5.10
2023-03-07T19:18:17.250Z,5.07
2023-03-07T19:20:43.862Z,5.13
2023-03-07T19:23:10.433Z,5.10
2023-03-07T19:25:37.109Z,5.10
2023-03-07T19:28:03.690Z,5.05
2023-03-07T19:30:32.951Z,4.99
2023-03-07T19:32:59.587Z,4.95
2023-03-07T19:35:26.195Z,4.92
2023-03-07T19:37:52.785Z,4.84
2023-03-07T19:40:19.477Z,4.86
2023-03-07T19:42:47.381Z,4.91
2023-03-07T19:45:13.965Z,4.90
2023-03-07T19:47:40.543Z,4.92
2023-03-07T19:50:07.652Z,4.87
2023-03-07T19:52:34.278Z,4.80
2023-03-07T19:55:00.823Z,4.41
2023-03-07T19:57:27.425Z,4.17
2023-03-07T19:59:54.312Z,4.07
2023-03-07T20:02:22.276Z,4.09
2023-03-07T20:04:49.754Z,3.99
2023-03-07T20:07:16.523Z,3.95
2023-03-07T20:09:43.121Z,3.96
2023-03-07T20:12:10.277Z,3.89
2023-03-07T20:14:42.636Z,3.92
2023-03-07T20:17:11.144Z,3.90
2023-03-07T20:19:38.564Z,3.90
2023-03-07T20:22:05.811Z,3.52
2023-03-07T20:24:33.290Z,3.28
2023-03-07T20:27:00.410Z,3.24
2023-03-07T20:29:36.816Z,3.31
2023-03-07T20:32:20.385Z,3.35
2023-03-07T20:35:09.893Z,3.26
2023-03-07T20:37:53.349Z,3.19
2023-03-07T20:40:21.453Z,3.10
2023-03-07T20:43:08.976Z,3.04
2023-03-07T20:45:38.784Z,2.92
2023-03-07T20:48:05.364Z,2.87
2023-03-07T20:50:46.843Z,2.73
2023-03-07T20:53:30.813Z,2.63
2023-03-07T20:56:03.277Z,2.35
2023-03-07T20:58:30.920Z,2.50
2023-03-07T21:01:04.615Z,2.66
2023-03-07T21:03:31.256Z,2.90
2023-03-07T21:06:00.486Z,3.06
2023-03-07T21:08:29.319Z,3.19
2023-03-07T21:11:19.727Z,3.27
2023-03-07T21:13:54.909Z,3.45
2023-03-07T21:16:34.115Z,3.49
2023-03-07T21:19:21.109Z,3.59
2023-03-07T21:22:02.064Z,3.63
2023-03-07T21:24:46.761Z,3.68
2023-03-07T21:27:31.932Z,3.64
2023-03-07T21:30:14.043Z,3.60
2023-03-07T21:32:49.080Z,3.67
2023-03-07T21:35:26.760Z,3.65
2023-03-07T21:37:53.414Z,3.68
2023-03-07T21:40:21.672Z,3.63
2023-03-07T21:42:48.278Z,3.54
2023-03-07T21:45:15.090Z,3.60
2023-03-07T21:47:41.690Z,3.46
2023-03-07T21:50:09.021Z,3.48
2023-03-07T21:52:35.605Z,3.46
2023-03-07T21:55:02.210Z,3.44
2023-03-07T21:57:29.468Z,3.41
2023-03-07T21:59:56.075Z,3.45
2023-03-07T22:02:23.082Z,3.39
2023-03-07T22:04:50.611Z,3.38
2023-03-07T22:07:17.257Z,3.32
2023-03-07T22:09:43.865Z,3.37
2023-03-07T22:12:10.434Z,3.32
2023-03-07T22:14:37.062Z,3.33
2023-03-07T22:17:03.699Z,3.27
2023-03-07T22:19:30.299Z,3.26
2023-03-07T22:21:56.913Z,3.24
2023-03-07T22:24:23.534Z,3.22
2023-03-07T22:26:50.162Z,3.19
2023-03-07T22:29:16.790Z,3.14
2023-03-07T22:31:43.445Z,3.11
2023-03-07T22:34:10.069Z,3.12
2023-03-07T22:36:36.708Z,3.09
2023-03-07T22:39:03.723Z,3.13
2023-03-07T22:41:48.633Z,3.08
2023-03-07T22:44:30.480Z,3.13
2023-03-07T22:47:14.184Z,3.15
2023-03-07T22:49:58.574Z,3.17
2023-03-07T22:52:25.452Z,3.17
2023-03-07T22:54:54.258Z,3.18
2023-03-07T22:57:26.380Z,3.20
2023-03-07T23:00:09.060Z,3.23
2023-03-07T23:02:48.851Z,3.25
2023-03-07T23:05:31.602Z,3.24
2023-03-07T23:08:11.346Z,3.26
2023-03-07T23:10:59.552Z,3.29
2023-03-07T23:13:38.247Z,3.28
2023-03-07T23:16:24.652Z,3.33
2023-03-07T23:19:09.356Z,3.26
2023-03-07T23:21:51.084Z,3.32
2023-03-07T23:24:34.001Z,3.31
2023-03-07T23:27:15.789Z,3.32
2023-03-07T23:29:51.919Z,3.32
2023-03-07T23:32:36.268Z,3.32
2023-03-07T23:35:20.568Z,3.30
2023-03-07T23:38:04.416Z,3.27
2023-03-07T23:40:55.513Z,3.26
2023-03-07T23:43:34.293Z,3.24
2023-03-07T23:46:13.362Z,3.27
2023-03-07T23:48:59.821Z,3.25
2023-03-07T23:51:46.707Z,3.27
2023-03-07T23:54:30.472Z,3.28
2023-03-07T23:57:13.890Z,3.27
2023-03-07T23:59:52.587Z,3.26
